sensor_id;sensor_type;location;lat;lon;timestamp;pressure;altitude;pressure_sealevel;temperature;humidity
18504;BME280;9381;54.244;10.074;2022-07-11T00:02:52;101622.78;;;14.40;90.86
18504;BME280;9381;54.244;10.074;2022-07-11T00:07:53;101614.41;;;14.35;90.96
18504;BME280;9381;54.244;10.074;2022-07-11T00:12:53;101615.47;;;14.34;90.97
18504;BME280;9381;54.244;10.074;2022-07-11T00:17:53;101606.09;;;14.30;91.42
18504;BME280;9381;54.244;10.074;2022-07-11T00:22:53;101599.84;;;14.23;91.43
18504;BME280;9381;54.244;10.074;2022-07-11T00:27:54;101600.09;;;14.15;92.41
18504;BME280;9381;54.244;10.074;2022-07-11T00:32:54;101597.81;;;14.12;92.47
18504;BME280;9381;54.244;10.074;2022-07-11T00:37:54;101609.09;;;14.09;92.45
18504;BME280;9381;54.244;10.074;2022-07-11T00:42:55;101604.50;;;14.10;92.20
18504;BME280;9381;54.244;10.074;2022-07-11T00:47:55;101609.38;;;14.01;92.16
18504;BME280;9381;54.244;10.074;2022-07-11T00:52:58;101608.78;;;13.93;92.82
18504;BME280;9381;54.244;10.074;2022-07-11T00:57:58;101614.28;;;13.86;93.23
18504;BME280;9381;54.244;10.074;2022-07-11T01:02:59;101607.56;;;13.82;94.24
18504;BME280;9381;54.244;10.074;2022-07-11T01:07:59;101605.06;;;13.87;93.63
18504;BME280;9381;54.244;10.074;2022-07-11T01:13:00;101616.53;;;13.89;93.85
18504;BME280;9381;54.244;10.074;2022-07-11T01:18:01;101607.53;;;13.95;93.93
18504;BME280;9381;54.244;10.074;2022-07-11T01:23:03;101616.13;;;13.92;93.86
18504;BME280;9381;54.244;10.074;2022-07-11T01:28:05;101606.28;;;13.91;94.05
18504;BME280;9381;54.244;10.074;2022-07-11T01:33:06;101608.81;;;13.86;94.50
18504;BME280;9381;54.244;10.074;2022-07-11T01:38:07;101620.56;;;13.80;94.88
18504;BME280;9381;54.244;10.074;2022-07-11T01:43:07;101611.78;;;13.78;95.34
18504;BME280;9381;54.244;10.074;2022-07-11T01:48:07;101613.06;;;13.76;95.19
18504;BME280;9381;54.244;10.074;2022-07-11T01:53:08;101607.63;;;13.76;94.76
18504;BME280;9381;54.244;10.074;2022-07-11T01:58:08;101617.47;;;13.70;95.35
18504;BME280;9381;54.244;10.074;2022-07-11T02:03:08;101614.78;;;13.64;95.83
18504;BME280;9381;54.244;10.074;2022-07-11T02:08:09;101612.28;;;13.62;96.59
18504;BME280;9381;54.244;10.074;2022-07-11T02:13:14;101610.84;;;13.53;96.75
18504;BME280;9381;54.244;10.074;2022-07-11T02:18:15;101604.34;;;13.54;96.89
18504;BME280;9381;54.244;10.074;2022-07-11T02:23:16;101611.91;;;13.52;97.26
18504;BME280;9381;54.244;10.074;2022-07-11T02:28:17;101609.16;;;13.52;96.91
18504;BME280;9381;54.244;10.074;2022-07-11T02:33:17;101613.19;;;13.43;97.47
18504;BME280;9381;54.244;10.074;2022-07-11T02:38:18;101619.06;;;13.40;97.54
18504;BME280;9381;54.244;10.074;2022-07-11T02:43:18;101618.63;;;13.37;97.35
18504;BME280;9381;54.244;10.074;2022-07-11T02:48:18;101622.84;;;13.26;97.03
18504;BME280;9381;54.244;10.074;2022-07-11T02:53:19;101632.03;;;13.25;97.14
18504;BME280;9381;54.244;10.074;2022-07-11T02:58:19;101631.41;;;13.23;97.92
18504;BME280;9381;54.244;10.074;2022-07-11T03:03:19;101635.81;;;13.24;97.92
18504;BME280;9381;54.244;10.074;2022-07-11T03:08:20;101638.72;;;13.16;98.40
18504;BME280;9381;54.244;10.074;2022-07-11T03:13:20;101636.03;;;13.16;98.39
18504;BME280;9381;54.244;10.074;2022-07-11T03:18:21;101631.63;;;13.15;98.52
18504;BME280;9381;54.244;10.074;2022-07-11T03:23:21;101634.34;;;13.15;99.33
18504;BME280;9381;54.244;10.074;2022-07-11T03:28:22;101644.41;;;13.15;98.64
18504;BME280;9381;54.244;10.074;2022-07-11T03:33:22;101636.66;;;13.12;98.81
18504;BME280;9381;54.244;10.074;2022-07-11T03:38:22;101635.41;;;13.14;96.74
18504;BME280;9381;54.244;10.074;2022-07-11T03:43:23;101635.41;;;13.14;94.70
18504;BME280;9381;54.244;10.074;2022-07-11T03:48:23;101637.09;;;13.09;94.03
18504;BME280;9381;54.244;10.074;2022-07-11T03:53:23;101641.47;;;13.03;95.07
18504;BME280;9381;54.244;10.074;2022-07-11T03:58:23;101631.03;;;13.07;97.05
18504;BME280;9381;54.244;10.074;2022-07-11T04:03:24;101635.63;;;13.19;96.81
18504;BME280;9381;54.244;10.074;2022-07-11T04:08:25;101637.69;;;13.30;95.80
18504;BME280;9381;54.244;10.074;2022-07-11T04:13:26;101634.97;;;13.30;96.39
18504;BME280;9381;54.244;10.074;2022-07-11T04:18:27;101632.22;;;13.37;97.28
18504;BME280;9381;54.244;10.074;2022-07-11T04:23:27;101632.84;;;13.32;97.42
18504;BME280;9381;54.244;10.074;2022-07-11T04:28:27;101628.25;;;13.26;98.97
18504;BME280;9381;54.244;10.074;2022-07-11T04:33:27;101638.50;;;13.24;100.00
18504;BME280;9381;54.244;10.074;2022-07-11T04:38:28;101639.13;;;13.26;100.00
18504;BME280;9381;54.244;10.074;2022-07-11T04:43:28;101636.81;;;13.36;100.00
18504;BME280;9381;54.244;10.074;2022-07-11T04:48:28;101624.28;;;13.35;100.00
18504;BME280;9381;54.244;10.074;2022-07-11T04:53:29;101634.69;;;13.51;100.00
18504;BME280;9381;54.244;10.074;2022-07-11T04:58:29;101635.28;;;13.66;100.00
18504;BME280;9381;54.244;10.074;2022-07-11T05:03:32;101639.78;;;13.85;100.00
18504;BME280;9381;54.244;10.074;2022-07-11T05:08:33;101639.91;;;14.03;100.00
18504;BME280;9381;54.244;10.074;2022-07-11T05:13:36;101635.03;;;14.18;100.00
18504;BME280;9381;54.244;10.074;2022-07-11T05:18:37;101650.03;;;14.34;100.00
18504;BME280;9381;54.244;10.074;2022-07-11T05:23:38;101650.34;;;14.50;100.00
18504;BME280;9381;54.244;10.074;2022-07-11T05:28:38;101651.53;;;14.61;100.00
18504;BME280;9381;54.244;10.074;2022-07-11T05:33:38;101654.34;;;14.72;100.00
18504;BME280;9381;54.244;10.074;2022-07-11T05:38:39;101644.66;;;14.82;99.93
18504;BME280;9381;54.244;10.074;2022-07-11T05:43:39;101644.13;;;14.92;99.43
18504;BME280;9381;54.244;10.074;2022-07-11T05:48:39;101647.81;;;15.04;99.05
18504;BME280;9381;54.244;10.074;2022-07-11T05:53:40;101640.88;;;15.26;96.89
18504;BME280;9381;54.244;10.074;2022-07-11T05:58:40;101646.25;;;15.39;95.70
18504;BME280;9381;54.244;10.074;2022-07-11T06:03:40;101651.03;;;15.61;93.44
18504;BME280;9381;54.244;10.074;2022-07-11T06:08:41;101652.16;;;15.72;93.31
18504;BME280;9381;54.244;10.074;2022-07-11T06:13:42;101656.22;;;15.81;92.56
18504;BME280;9381;54.244;10.074;2022-07-11T06:18:44;101665.41;;;15.86;90.27
18504;BME280;9381;54.244;10.074;2022-07-11T06:23:44;101653.56;;;15.92;89.81
18504;BME280;9381;54.244;10.074;2022-07-11T06:28:45;101666.66;;;16.02;90.08
18504;BME280;9381;54.244;10.074;2022-07-11T06:33:45;101664.69;;;16.09;90.18
18504;BME280;9381;54.244;10.074;2022-07-11T06:38:46;101663.31;;;16.18;89.22
18504;BME280;9381;54.244;10.074;2022-07-11T06:43:46;101665.25;;;16.29;89.77
18504;BME280;9381;54.244;10.074;2022-07-11T06:48:47;101663.50;;;16.52;88.95
18504;BME280;9381;54.244;10.074;2022-07-11T06:53:48;101663.06;;;16.67;88.05
18504;BME280;9381;54.244;10.074;2022-07-11T06:58:48;101658.91;;;16.76;87.31
18504;BME280;9381;54.244;10.074;2022-07-11T07:03:48;101667.44;;;16.79;86.42
18504;BME280;9381;54.244;10.074;2022-07-11T07:08:49;101670.69;;;16.88;85.91
18504;BME280;9381;54.244;10.074;2022-07-11T07:13:49;101668.44;;;16.85;84.84
18504;BME280;9381;54.244;10.074;2022-07-11T07:18:50;101679.47;;;16.90;84.82
18504;BME280;9381;54.244;10.074;2022-07-11T07:23:51;101686.19;;;17.17;83.90
18504;BME280;9381;54.244;10.074;2022-07-11T07:28:52;101668.72;;;17.52;82.87
18504;BME280;9381;54.244;10.074;2022-07-11T07:33:52;101664.88;;;17.88;80.81
18504;BME280;9381;54.244;10.074;2022-07-11T07:38:53;101669.41;;;18.21;79.35
18504;BME280;9381;54.244;10.074;2022-07-11T07:43:54;101678.41;;;18.45;78.31
18504;BME280;9381;54.244;10.074;2022-07-11T07:48:54;101679.47;;;18.04;78.44
18504;BME280;9381;54.244;10.074;2022-07-11T07:53:54;101682.56;;;17.96;78.88
18504;BME280;9381;54.244;10.074;2022-07-11T07:58:54;101685.63;;;18.11;78.28
18504;BME280;9381;54.244;10.074;2022-07-11T08:03:56;101688.09;;;18.36;77.78
18504;BME280;9381;54.244;10.074;2022-07-11T08:08:57;101683.41;;;18.36;76.92
18504;BME280;9381;54.244;10.074;2022-07-11T08:13:58;101684.09;;;18.43;75.44
18504;BME280;9381;54.244;10.074;2022-07-11T08:19:01;101677.00;;;18.75;75.71
18504;BME280;9381;54.244;10.074;2022-07-11T08:24:02;101671.44;;;19.31;73.34
18504;BME280;9381;54.244;10.074;2022-07-11T08:29:03;101680.16;;;19.66;72.71
18504;BME280;9381;54.244;10.074;2022-07-11T08:34:04;101682.88;;;19.12;71.16
18504;BME280;9381;54.244;10.074;2022-07-11T08:39:04;101685.22;;;19.03;71.29
18504;BME280;9381;54.244;10.074;2022-07-11T08:44:06;101689.03;;;19.35;71.74
18504;BME280;9381;54.244;10.074;2022-07-11T08:49:06;101692.44;;;19.80;69.39
18504;BME280;9381;54.244;10.074;2022-07-11T08:54:07;101688.53;;;20.14;68.25
18504;BME280;9381;54.244;10.074;2022-07-11T08:59:07;101690.44;;;20.35;67.26
18504;BME280;9381;54.244;10.074;2022-07-11T09:04:09;101695.69;;;20.37;66.68
18504;BME280;9381;54.244;10.074;2022-07-11T09:09:09;101689.06;;;20.59;64.90
18504;BME280;9381;54.244;10.074;2022-07-11T09:19:29;101692.81;;;21.42;61.49
18504;BME280;9381;54.244;10.074;2022-07-11T09:24:35;101683.47;;;21.80;58.61
18504;BME280;9381;54.244;10.074;2022-07-11T09:30:15;101688.03;;;21.28;59.22
18504;BME280;9381;54.244;10.074;2022-07-11T09:35:16;101683.75;;;21.42;59.63
18504;BME280;9381;54.244;10.074;2022-07-11T09:40:18;101676.03;;;22.42;60.02
18504;BME280;9381;54.244;10.074;2022-07-11T09:45:20;101681.91;;;22.85;57.28
18504;BME280;9381;54.244;10.074;2022-07-11T09:50:25;101684.31;;;22.42;57.04
18504;BME280;9381;54.244;10.074;2022-07-11T09:55:26;101680.91;;;22.30;57.10
18504;BME280;9381;54.244;10.074;2022-07-11T10:00:26;101674.16;;;22.87;58.14
18504;BME280;9381;54.244;10.074;2022-07-11T10:05:28;101672.50;;;23.06;55.99
18504;BME280;9381;54.244;10.074;2022-07-11T10:10:30;101682.69;;;22.66;58.27
18504;BME280;9381;54.244;10.074;2022-07-11T10:15:34;101681.09;;;23.35;55.66
18504;BME280;9381;54.244;10.074;2022-07-11T10:20:57;101677.44;;;24.42;51.30
18504;BME280;9381;54.244;10.074;2022-07-11T10:26:11;101674.53;;;24.67;51.15
18504;BME280;9381;54.244;10.074;2022-07-11T10:31:24;101677.69;;;25.56;48.34
18504;BME280;9381;54.244;10.074;2022-07-11T10:36:29;101667.69;;;25.84;49.62
18504;BME280;9381;54.244;10.074;2022-07-11T10:41:30;101673.25;;;26.68;47.64
18504;BME280;9381;54.244;10.074;2022-07-11T10:46:30;101673.16;;;26.12;46.06
18504;BME280;9381;54.244;10.074;2022-07-11T10:56:55;101667.16;;;26.47;47.30
18504;BME280;9381;54.244;10.074;2022-07-11T11:07:04;101676.72;;;27.74;44.25
18504;BME280;9381;54.244;10.074;2022-07-11T11:12:04;101671.81;;;27.39;42.65
18504;BME280;9381;54.244;10.074;2022-07-11T11:17:34;101678.72;;;26.91;47.29
18504;BME280;9381;54.244;10.074;2022-07-11T11:22:34;101668.28;;;27.79;43.34
18504;BME280;9381;54.244;10.074;2022-07-11T11:27:35;101673.34;;;27.32;43.65
18504;BME280;9381;54.244;10.074;2022-07-11T11:32:35;101679.56;;;26.73;44.73
18504;BME280;9381;54.244;10.074;2022-07-11T11:37:35;101676.63;;;26.65;48.72
18504;BME280;9381;54.244;10.074;2022-07-11T11:42:36;101683.34;;;27.46;43.10
18504;BME280;9381;54.244;10.074;2022-07-11T11:47:46;101684.03;;;26.88;41.16
18504;BME280;9381;54.244;10.074;2022-07-11T11:52:48;101682.09;;;26.70;44.56
18504;BME280;9381;54.244;10.074;2022-07-11T11:57:48;101676.31;;;28.21;44.80
18504;BME280;9381;54.244;10.074;2022-07-11T12:02:50;101670.81;;;28.43;40.82
18504;BME280;9381;54.244;10.074;2022-07-11T12:07:50;101668.25;;;28.82;39.15
18504;BME280;9381;54.244;10.074;2022-07-11T12:12:51;101673.84;;;29.04;40.63
18504;BME280;9381;54.244;10.074;2022-07-11T12:17:56;101678.38;;;28.42;39.93
18504;BME280;9381;54.244;10.074;2022-07-11T12:22:57;101671.88;;;28.06;42.21
18504;BME280;9381;54.244;10.074;2022-07-11T12:27:58;101665.56;;;28.55;40.69
18504;BME280;9381;54.244;10.074;2022-07-11T12:33:13;101670.81;;;28.92;39.94
18504;BME280;9381;54.244;10.074;2022-07-11T12:38:13;101666.38;;;28.28;39.89
18504;BME280;9381;54.244;10.074;2022-07-11T12:43:14;101662.66;;;27.66;43.25
18504;BME280;9381;54.244;10.074;2022-07-11T12:48:38;101663.91;;;27.46;39.59
18504;BME280;9381;54.244;10.074;2022-07-11T12:53:39;101658.00;;;28.55;42.65
18504;BME280;9381;54.244;10.074;2022-07-11T12:58:39;101663.97;;;28.13;38.96
18504;BME280;9381;54.244;10.074;2022-07-11T13:03:40;101658.63;;;27.90;41.32
18504;BME280;9381;54.244;10.074;2022-07-11T13:08:40;101663.97;;;27.09;42.28
18504;BME280;9381;54.244;10.074;2022-07-11T13:13:48;101656.13;;;26.98;42.95
18504;BME280;9381;54.244;10.074;2022-07-11T13:18:48;101658.47;;;27.68;40.98
18504;BME280;9381;54.244;10.074;2022-07-11T13:23:49;101665.69;;;28.23;39.13
18504;BME280;9381;54.244;10.074;2022-07-11T13:28:49;101671.03;;;28.33;40.33
18504;BME280;9381;54.244;10.074;2022-07-11T13:33:50;101670.38;;;28.98;39.45
18504;BME280;9381;54.244;10.074;2022-07-11T13:38:50;101661.00;;;29.16;39.60
18504;BME280;9381;54.244;10.074;2022-07-11T13:43:51;101670.09;;;28.51;40.07
18504;BME280;9381;54.244;10.074;2022-07-11T13:48:51;101667.44;;;28.46;40.44
18504;BME280;9381;54.244;10.074;2022-07-11T13:53:52;101670.44;;;28.09;39.93
18504;BME280;9381;54.244;10.074;2022-07-11T13:58:52;101665.25;;;27.17;42.71
18504;BME280;9381;54.244;10.074;2022-07-11T14:03:52;101676.13;;;26.39;43.21
18504;BME280;9381;54.244;10.074;2022-07-11T14:08:53;101662.06;;;26.12;44.34
18504;BME280;9381;54.244;10.074;2022-07-11T14:13:53;101659.91;;;26.09;43.63
18504;BME280;9381;54.244;10.074;2022-07-11T14:18:53;101666.44;;;26.37;43.87
18504;BME280;9381;54.244;10.074;2022-07-11T14:23:54;101663.94;;;25.98;44.71
18504;BME280;9381;54.244;10.074;2022-07-11T14:28:55;101662.97;;;26.08;45.69
18504;BME280;9381;54.244;10.074;2022-07-11T14:33:55;101658.38;;;25.98;44.90
18504;BME280;9381;54.244;10.074;2022-07-11T14:38:58;101661.81;;;25.90;44.96
18504;BME280;9381;54.244;10.074;2022-07-11T14:43:58;101668.63;;;25.74;42.98
18504;BME280;9381;54.244;10.074;2022-07-11T14:48:58;101662.38;;;25.87;43.52
18504;BME280;9381;54.244;10.074;2022-07-11T14:53:59;101657.69;;;25.83;43.59
18504;BME280;9381;54.244;10.074;2022-07-11T14:58:59;101661.00;;;25.61;44.48
18504;BME280;9381;54.244;10.074;2022-07-11T15:03:59;101652.19;;;25.31;45.35
18504;BME280;9381;54.244;10.074;2022-07-11T15:09:03;101648.03;;;25.57;46.80
18504;BME280;9381;54.244;10.074;2022-07-11T15:14:42;101652.84;;;25.46;47.15
18504;BME280;9381;54.244;10.074;2022-07-11T15:19:42;101664.56;;;25.05;47.14
18504;BME280;9381;54.244;10.074;2022-07-11T15:24:43;101661.72;;;25.15;47.26
18504;BME280;9381;54.244;10.074;2022-07-11T15:29:43;101664.13;;;24.93;47.74
18504;BME280;9381;54.244;10.074;2022-07-11T15:34:45;101666.81;;;24.64;49.00
18504;BME280;9381;54.244;10.074;2022-07-11T15:39:45;101666.81;;;24.64;49.21
18504;BME280;9381;54.244;10.074;2022-07-11T15:44:45;101666.03;;;24.59;49.09
18504;BME280;9381;54.244;10.074;2022-07-11T15:49:46;101671.34;;;24.45;50.42
18504;BME280;9381;54.244;10.074;2022-07-11T15:54:46;101672.59;;;24.20;50.23
18504;BME280;9381;54.244;10.074;2022-07-11T15:59:46;101666.56;;;24.03;50.13
18504;BME280;9381;54.244;10.074;2022-07-11T16:04:47;101664.88;;;24.17;49.56
18504;BME280;9381;54.244;10.074;2022-07-11T16:09:48;101664.28;;;24.25;49.80
18504;BME280;9381;54.244;10.074;2022-07-11T16:14:48;101659.59;;;24.15;50.18
18504;BME280;9381;54.244;10.074;2022-07-11T16:19:48;101657.09;;;24.24;49.82
18504;BME280;9381;54.244;10.074;2022-07-11T16:24:49;101650.88;;;23.93;50.55
18504;BME280;9381;54.244;10.074;2022-07-11T16:29:49;101660.88;;;23.69;51.49
18504;BME280;9381;54.244;10.074;2022-07-11T16:34:50;101660.88;;;23.59;52.48
18504;BME280;9381;54.244;10.074;2022-07-11T16:39:50;101657.28;;;23.64;52.74
18504;BME280;9381;54.244;10.074;2022-07-11T16:45:09;101659.47;;;23.72;51.67
18504;BME280;9381;54.244;10.074;2022-07-11T16:50:10;101663.63;;;23.69;53.29
18504;BME280;9381;54.244;10.074;2022-07-11T16:55:10;101663.66;;;23.54;53.69
18504;BME280;9381;54.244;10.074;2022-07-11T17:00:11;101668.94;;;23.51;54.04
18504;BME280;9381;54.244;10.074;2022-07-11T17:05:12;101668.94;;;23.51;54.27
18504;BME280;9381;54.244;10.074;2022-07-11T17:10:12;101668.34;;;23.49;53.57
18504;BME280;9381;54.244;10.074;2022-07-11T17:15:13;101661.72;;;23.50;53.97
18504;BME280;9381;54.244;10.074;2022-07-11T17:20:13;101669.44;;;23.58;54.67
18504;BME280;9381;54.244;10.074;2022-07-11T17:25:13;101669.41;;;23.68;57.37
18504;BME280;9381;54.244;10.074;2022-07-11T17:30:14;101670.00;;;23.70;58.36
18504;BME280;9381;54.244;10.074;2022-07-11T17:35:14;101675.75;;;23.78;58.93
18504;BME280;9381;54.244;10.074;2022-07-11T17:40:15;101670.75;;;23.90;60.92
18504;BME280;9381;54.244;10.074;2022-07-11T17:45:16;101676.00;;;23.97;60.30
18504;BME280;9381;54.244;10.074;2022-07-11T17:50:18;101675.22;;;23.86;61.80
18504;BME280;9381;54.244;10.074;2022-07-11T17:55:18;101678.28;;;23.70;63.16
18504;BME280;9381;54.244;10.074;2022-07-11T18:00:19;101684.94;;;23.54;64.69
18504;BME280;9381;54.244;10.074;2022-07-11T18:05:22;101692.16;;;23.25;65.38
18504;BME280;9381;54.244;10.074;2022-07-11T18:10:22;101697.06;;;23.13;66.67
18504;BME280;9381;54.244;10.074;2022-07-11T18:15:23;101695.41;;;22.92;68.00
18504;BME280;9381;54.244;10.074;2022-07-11T18:20:23;101708.09;;;22.73;68.05
18504;BME280;9381;54.244;10.074;2022-07-11T18:25:24;101713.56;;;22.58;67.85
18504;BME280;9381;54.244;10.074;2022-07-11T18:30:24;101711.81;;;22.37;69.25
18504;BME280;9381;54.244;10.074;2022-07-11T18:35:25;101718.94;;;22.28;69.56
18504;BME280;9381;54.244;10.074;2022-07-11T18:40:25;101722.44;;;22.03;70.63
18504;BME280;9381;54.244;10.074;2022-07-11T18:45:44;101730.13;;;22.01;70.06
18504;BME280;9381;54.244;10.074;2022-07-11T18:50:45;101735.00;;;21.89;70.64
18504;BME280;9381;54.244;10.074;2022-07-11T18:55:46;101735.25;;;21.78;70.96
18504;BME280;9381;54.244;10.074;2022-07-11T19:00:46;101746.06;;;21.58;71.45
18504;BME280;9381;54.244;10.074;2022-07-11T19:05:46;101754.78;;;21.45;72.15
18504;BME280;9381;54.244;10.074;2022-07-11T19:10:47;101758.50;;;21.29;72.86
18504;BME280;9381;54.244;10.074;2022-07-11T19:15:47;101762.78;;;21.15;73.57
18504;BME280;9381;54.244;10.074;2022-07-11T19:20:47;101768.78;;;21.12;73.68
18504;BME280;9381;54.244;10.074;2022-07-11T19:25:48;101773.09;;;21.03;74.42
18504;BME280;9381;54.244;10.074;2022-07-11T19:30:48;101768.28;;;20.89;74.85
18504;BME280;9381;54.244;10.074;2022-07-11T19:35:49;101768.34;;;20.72;75.60
18504;BME280;9381;54.244;10.074;2022-07-11T19:40:49;101771.53;;;20.59;76.15
18504;BME280;9381;54.244;10.074;2022-07-11T19:45:49;101778.81;;;20.49;76.86
18504;BME280;9381;54.244;10.074;2022-07-11T19:50:50;101779.50;;;20.39;77.28
18504;BME280;9381;54.244;10.074;2022-07-11T19:55:51;101776.63;;;20.29;78.21
18504;BME280;9381;54.244;10.074;2022-07-11T20:01:10;101787.44;;;20.14;79.05
18504;BME280;9381;54.244;10.074;2022-07-11T20:06:11;101782.41;;;20.11;79.24
18504;BME280;9381;54.244;10.074;2022-07-11T20:11:11;101790.50;;;20.01;79.88
18504;BME280;9381;54.244;10.074;2022-07-11T20:16:12;101781.28;;;19.91;80.16
18504;BME280;9381;54.244;10.074;2022-07-11T20:21:12;101793.94;;;19.75;81.08
18504;BME280;9381;54.244;10.074;2022-07-11T20:26:13;101805.78;;;19.59;81.35
18504;BME280;9381;54.244;10.074;2022-07-11T20:31:15;101796.72;;;19.42;82.51
18504;BME280;9381;54.244;10.074;2022-07-11T20:36:15;101799.63;;;19.36;82.96
18504;BME280;9381;54.244;10.074;2022-07-11T20:41:16;101804.78;;;19.32;83.19
18504;BME280;9381;54.244;10.074;2022-07-11T20:46:16;101807.56;;;19.21;83.96
18504;BME280;9381;54.244;10.074;2022-07-11T20:51:17;101808.38;;;19.21;83.96
18504;BME280;9381;54.244;10.074;2022-07-11T20:56:17;101805.00;;;19.03;84.63
18504;BME280;9381;54.244;10.074;2022-07-11T21:01:18;101802.66;;;18.95;84.88
18504;BME280;9381;54.244;10.074;2022-07-11T21:06:18;101808.31;;;18.88;85.26
18504;BME280;9381;54.244;10.074;2022-07-11T21:11:19;101802.63;;;18.78;85.89
18504;BME280;9381;54.244;10.074;2022-07-11T21:16:19;101808.25;;;18.72;86.00
18504;BME280;9381;54.244;10.074;2022-07-11T21:21:19;101814.34;;;18.62;86.57
18504;BME280;9381;54.244;10.074;2022-07-11T21:26:20;101820.59;;;18.46;85.91
18504;BME280;9381;54.244;10.074;2022-07-11T21:31:21;101818.84;;;18.29;86.51
18504;BME280;9381;54.244;10.074;2022-07-11T21:36:21;101827.03;;;18.17;87.60
18504;BME280;9381;54.244;10.074;2022-07-11T21:41:22;101835.63;;;18.09;88.96
18504;BME280;9381;54.244;10.074;2022-07-11T21:46:22;101833.97;;;18.08;89.13
18504;BME280;9381;54.244;10.074;2022-07-11T21:51:22;101829.78;;;18.06;89.05
18504;BME280;9381;54.244;10.074;2022-07-11T21:56:23;101824.44;;;17.99;89.34
18504;BME280;9381;54.244;10.074;2022-07-11T22:01:23;101821.59;;;17.94;89.63
18504;BME280;9381;54.244;10.074;2022-07-11T22:06:24;101844.44;;;17.88;89.28
18504;BME280;9381;54.244;10.074;2022-07-11T22:11:24;101840.38;;;17.80;88.30
18504;BME280;9381;54.244;10.074;2022-07-11T22:16:24;101842.28;;;17.68;88.01
18504;BME280;9381;54.244;10.074;2022-07-11T22:21:25;101835.09;;;17.44;89.06
18504;BME280;9381;54.244;10.074;2022-07-11T22:26:25;101844.53;;;17.30;89.32
18504;BME280;9381;54.244;10.074;2022-07-11T22:31:26;101845.88;;;17.27;90.07
18504;BME280;9381;54.244;10.074;2022-07-11T22:36:26;101864.22;;;17.09;90.64
18504;BME280;9381;54.244;10.074;2022-07-11T22:41:26;101862.88;;;17.00;91.70
18504;BME280;9381;54.244;10.074;2022-07-11T22:46:27;101863.28;;;16.85;93.22
18504;BME280;9381;54.244;10.074;2022-07-11T22:51:27;101868.22;;;16.77;95.03
18504;BME280;9381;54.244;10.074;2022-07-11T22:56:28;101866.31;;;16.77;95.19
18504;BME280;9381;54.244;10.074;2022-07-11T23:01:28;101879.19;;;16.88;95.57
18504;BME280;9381;54.244;10.074;2022-07-11T23:06:28;101878.50;;;16.93;95.26
18504;BME280;9381;54.244;10.074;2022-07-11T23:11:29;101865.69;;;16.93;95.05
18504;BME280;9381;54.244;10.074;2022-07-11T23:16:29;101861.50;;;16.91;94.34
18504;BME280;9381;54.244;10.074;2022-07-11T23:21:30;101871.25;;;16.87;94.34
18504;BME280;9381;54.244;10.074;2022-07-11T23:26:30;101854.47;;;16.83;92.78
18504;BME280;9381;54.244;10.074;2022-07-11T23:31:30;101850.50;;;16.68;92.19
18504;BME280;9381;54.244;10.074;2022-07-11T23:36:32;101867.09;;;16.48;92.58
18504;BME280;9381;54.244;10.074;2022-07-11T23:41:33;101868.84;;;16.43;92.85
18504;BME280;9381;54.244;10.074;2022-07-11T23:46:34;101874.78;;;16.33;93.01
18504;BME280;9381;54.244;10.074;2022-07-11T23:51:34;101877.47;;;16.22;93.52
18504;BME280;9381;54.244;10.074;2022-07-11T23:56:34;101873.50;;;16.18;94.77
